createdAt,value
2019-06-27T00:00:26.822Z,102005.31
2019-06-27T00:03:43.753Z,102012.72
2019-06-27T00:07:00.497Z,102004.30
2019-06-27T00:10:08.588Z,102002.55
2019-06-27T00:13:16.008Z,102004.50
2019-06-27T00:16:25.730Z,102009.23
2019-06-27T00:19:33.341Z,102010.35
2019-06-27T00:22:41.412Z,102007.48
2019-06-27T00:25:47.200Z,102005.50
2019-06-27T00:29:03.858Z,102006.00
2019-06-27T00:32:20.993Z,102005.63
2019-06-27T00:35:28.497Z,101996.17
2019-06-27T00:38:35.778Z,101995.12
2019-06-27T00:41:43.127Z,101998.58
2019-06-27T00:44:50.496Z,102000.94
2019-06-27T00:47:56.870Z,102003.37
2019-06-27T00:51:13.507Z,102000.09
2019-06-27T00:54:33.906Z,101995.67
2019-06-27T00:57:50.805Z,101994.59
2019-06-27T01:01:13.569Z,102008.47
2019-06-27T01:04:30.361Z,102008.25
2019-06-27T01:07:47.382Z,102022.89
2019-06-27T01:11:04.071Z,102021.84
2019-06-27T01:14:20.941Z,102021.15
2019-06-27T01:17:37.695Z,102020.16
2019-06-27T01:20:55.629Z,102020.61
2019-06-27T01:24:12.308Z,102028.70
2019-06-27T01:27:30.513Z,102030.59
2019-06-27T01:30:38.092Z,102031.30
2019-06-27T01:34:00.562Z,102017.70
2019-06-27T01:37:07.948Z,102029.73
2019-06-27T01:40:30.846Z,102034.63
2019-06-27T01:43:38.448Z,102031.48
2019-06-27T01:46:45.879Z,102028.49
2019-06-27T01:49:51.828Z,102029.28
2019-06-27T01:52:59.240Z,102026.19
2019-06-27T01:56:06.687Z,102025.63
2019-06-27T01:59:23.405Z,102027.55
2019-06-27T02:02:30.738Z,102029.89
2019-06-27T02:05:47.810Z,102024.10
2019-06-27T02:09:05.045Z,102017.09
2019-06-27T02:12:12.489Z,102009.34
2019-06-27T02:15:22.261Z,102009.34
2019-06-27T02:18:29.708Z,102021.64
2019-06-27T02:21:37.066Z,102016.47
2019-06-27T02:24:44.370Z,102018.43
2019-06-27T02:28:03.157Z,102018.62
2019-06-27T02:31:00.956Z,102021.62
2019-06-27T02:34:08.358Z,102019.94
2019-06-27T02:37:15.625Z,102016.73
2019-06-27T02:40:32.579Z,102019.37
2019-06-27T02:43:49.811Z,102027.52
2019-06-27T02:47:06.822Z,102030.34
2019-06-27T02:50:23.349Z,102023.42
2019-06-27T02:53:30.822Z,102017.66
2019-06-27T02:56:47.525Z,102017.21
2019-06-27T03:00:04.346Z,102017.66
2019-06-27T03:03:21.181Z,102011.02
2019-06-27T03:06:38.070Z,102008.22
2019-06-27T03:09:54.625Z,102016.72
2019-06-27T03:13:11.635Z,102005.52
2019-06-27T03:16:18.031Z,102006.75
2019-06-27T03:19:25.427Z,102014.67
2019-06-27T03:22:32.849Z,102019.22
2019-06-27T03:25:40.136Z,102024.84
2019-06-27T03:28:53.250Z,102028.19
2019-06-27T03:32:12.366Z,102021.59
2019-06-27T03:35:28.939Z,102017.54
2019-06-27T03:38:45.746Z,102021.48
2019-06-27T03:42:02.613Z,102024.80
2019-06-27T03:45:19.502Z,102019.34
2019-06-27T03:48:42.308Z,102017.14
2019-06-27T03:51:59.199Z,102017.03
2019-06-27T03:55:15.761Z,102020.91
2019-06-27T03:58:32.620Z,102027.09
2019-06-27T04:01:49.453Z,102024.01
2019-06-27T04:05:06.403Z,102020.61
2019-06-27T04:08:23.009Z,102025.23
2019-06-27T04:11:40.036Z,102027.36
2019-06-27T04:14:56.705Z,102018.66
2019-06-27T04:18:22.525Z,102025.73
2019-06-27T04:21:39.498Z,102035.17
2019-06-27T04:25:02.584Z,102025.94
2019-06-27T04:28:25.431Z,102030.24
2019-06-27T04:31:42.092Z,102027.13
2019-06-27T04:34:58.759Z,102024.80
2019-06-27T04:38:06.029Z,102034.84
2019-06-27T04:41:28.831Z,102032.11
2019-06-27T04:44:51.531Z,102031.04
2019-06-27T04:48:11.526Z,102038.39
2019-06-27T04:51:28.383Z,102026.77
2019-06-27T04:54:45.437Z,102034.69
2019-06-27T04:58:02.290Z,102032.86
2019-06-27T05:01:25.003Z,102036.54
2019-06-27T05:04:41.919Z,102034.46
2019-06-27T05:07:58.991Z,102043.97
2019-06-27T05:11:15.576Z,102042.09
2019-06-27T05:14:32.793Z,102040.73
2019-06-27T05:17:40.018Z,102052.23
2019-06-27T05:20:45.889Z,102053.22
2019-06-27T05:23:53.405Z,102046.99
2019-06-27T05:27:00.791Z,102054.06
2019-06-27T05:30:10.424Z,102052.94
2019-06-27T05:33:18.703Z,102054.45
2019-06-27T05:36:35.641Z,102053.24
2019-06-27T05:39:52.439Z,102065.20
2019-06-27T05:43:09.314Z,102070.09
2019-06-27T05:46:26.116Z,102071.23
2019-06-27T05:49:44.837Z,102081.23
2019-06-27T05:53:01.882Z,102080.36
2019-06-27T05:56:09.823Z,102073.66
2019-06-27T05:59:17.483Z,102071.06
2019-06-27T06:02:24.766Z,102071.06
2019-06-27T06:05:41.650Z,102074.41
2019-06-27T06:08:58.350Z,102071.13
2019-06-27T06:12:06.111Z,102072.34
2019-06-27T06:15:13.450Z,102074.48
2019-06-27T06:18:20.952Z,102078.91
2019-06-27T06:21:28.543Z,102072.62
2019-06-27T06:24:35.829Z,102072.14
2019-06-27T06:27:52.857Z,102064.82
2019-06-27T06:31:09.650Z,102069.91
2019-06-27T06:34:26.668Z,102070.42
2019-06-27T06:37:43.338Z,102073.80
2019-06-27T06:41:06.159Z,102065.14
2019-06-27T06:44:23.084Z,102074.12
2019-06-27T06:47:40.142Z,102078.91
2019-06-27T06:51:02.970Z,102081.00
2019-06-27T06:54:19.610Z,102079.25
2019-06-27T06:57:36.656Z,102072.80
2019-06-27T07:01:01.501Z,102076.69
2019-06-27T07:04:11.830Z,102078.73
2019-06-27T07:07:28.660Z,102078.59
2019-06-27T07:10:45.497Z,102087.27
2019-06-27T07:14:02.199Z,102084.88
2019-06-27T07:17:19.044Z,102084.08
2019-06-27T07:20:42.212Z,102085.84
2019-06-27T07:24:05.036Z,102087.63
2019-06-27T07:27:12.067Z,102091.06
2019-06-27T07:30:29.996Z,102095.64
2019-06-27T07:33:46.733Z,102095.94
2019-06-27T07:37:03.581Z,102098.47
2019-06-27T07:40:20.547Z,102101.92
2019-06-27T07:43:39.332Z,102091.42
2019-06-27T07:46:56.036Z,102100.08
2019-06-27T07:50:01.835Z,102097.38
2019-06-27T07:53:18.638Z,102109.19
2019-06-27T07:56:36.424Z,102096.54
2019-06-27T07:59:59.427Z,102100.25
2019-06-27T08:03:16.161Z,102096.98
2019-06-27T08:06:33.080Z,102106.92
2019-06-27T08:09:39.857Z,102109.06
2019-06-27T08:12:47.224Z,102100.95
2019-06-27T08:15:54.724Z,102105.23
2019-06-27T08:19:11.580Z,102111.64
2019-06-27T08:22:28.500Z,102114.50
2019-06-27T08:25:51.419Z,102113.30
2019-06-27T08:29:08.069Z,102114.90
2019-06-27T08:32:24.855Z,102127.36
2019-06-27T08:35:47.564Z,102123.34
2019-06-27T08:39:05.577Z,102125.31
2019-06-27T08:42:13.015Z,102122.41
2019-06-27T08:45:20.617Z,102129.30
2019-06-27T08:48:37.274Z,102128.81
2019-06-27T09:02:15.931Z,102141.85
2019-06-27T09:05:32.691Z,102137.84
2019-06-27T09:08:49.654Z,102133.29
2019-06-27T09:12:08.603Z,102140.53
2019-06-27T09:15:25.281Z,102132.34
2019-06-27T09:18:42.185Z,102133.34
2019-06-27T09:22:01.163Z,102133.81
2019-06-27T09:25:18.255Z,102135.02
2019-06-27T09:28:25.773Z,102137.83
2019-06-27T09:31:33.251Z,102133.45
2019-06-27T09:34:40.633Z,102127.92
2019-06-27T09:37:48.138Z,102128.59
2019-06-27T09:40:55.504Z,102121.28
2019-06-27T09:44:12.368Z,102122.11
2019-06-27T09:47:29.093Z,102131.96
2019-06-27T09:50:47.076Z,102126.17
2019-06-27T09:54:09.653Z,102129.62
2019-06-27T09:57:17.133Z,102131.70
2019-06-27T10:00:36.970Z,102126.28
2019-06-27T10:03:53.574Z,102130.34
2019-06-27T10:07:10.551Z,102119.73
2019-06-27T10:10:33.387Z,102127.14
2019-06-27T10:13:40.071Z,102129.28
2019-06-27T10:16:47.492Z,102128.16
2019-06-27T10:20:05.072Z,102130.71
2019-06-27T10:23:12.439Z,102129.77
2019-06-27T10:26:20.030Z,102129.74
2019-06-27T10:29:27.445Z,102124.89
2019-06-27T10:32:34.866Z,102123.05
2019-06-27T10:35:57.640Z,102118.48
2019-06-27T10:39:14.563Z,102114.52
2019-06-27T10:42:35.859Z,102130.65
2019-06-27T10:45:41.917Z,102122.59
2019-06-27T10:48:47.554Z,102126.35
2019-06-27T10:51:55.053Z,102124.13
2019-06-27T10:55:02.347Z,102125.13
2019-06-27T10:58:09.802Z,102125.38
2019-06-27T11:01:26.757Z,102119.74
2019-06-27T11:04:43.363Z,102121.96
2019-06-27T11:07:49.681Z,102125.27
2019-06-27T11:10:57.439Z,102130.27
2019-06-27T11:14:05.349Z,102127.83
2019-06-27T11:17:11.622Z,102112.20
2019-06-27T11:20:19.314Z,102104.61
2019-06-27T11:23:36.337Z,102110.39
2019-06-27T11:26:53.134Z,102104.97
2019-06-27T11:30:10.293Z,102108.06
2019-06-27T11:33:31.266Z,102114.23
2019-06-27T11:36:26.938Z,102106.45
2019-06-27T11:39:34.363Z,102110.50
2019-06-27T11:42:41.794Z,102105.67
2019-06-27T11:45:49.141Z,102097.13
2019-06-27T11:49:05.941Z,102095.16
2019-06-27T11:52:26.125Z,102092.55
2019-06-27T11:55:47.342Z,102089.38
2019-06-27T11:58:53.597Z,102091.88
2019-06-27T12:02:00.551Z,102095.20
2019-06-27T12:05:08.111Z,102087.95
2019-06-27T12:08:15.594Z,102090.33
2019-06-27T12:11:25.238Z,102088.58
2019-06-27T12:14:32.688Z,102081.69
2019-06-27T12:17:40.257Z,102080.09
2019-06-27T12:20:47.874Z,102085.44
2019-06-27T12:23:55.251Z,102075.56
2019-06-27T12:27:12.058Z,102080.23
2019-06-27T12:30:29.022Z,102068.58
2019-06-27T12:44:07.748Z,102062.75
2019-06-27T12:47:24.376Z,102065.84
2019-06-27T12:50:47.213Z,102069.64
2019-06-27T12:54:10.391Z,102064.06
2019-06-27T12:57:16.241Z,102068.08
2019-06-27T13:00:24.015Z,102069.73
2019-06-27T13:03:31.398Z,102056.36
2019-06-27T13:06:38.929Z,102052.91
2019-06-27T13:09:46.248Z,102056.23
2019-06-27T13:13:03.294Z,102055.88
2019-06-27T13:16:19.989Z,102057.63
2019-06-27T13:19:42.789Z,102058.34
2019-06-27T13:22:59.624Z,102055.61
2019-06-27T13:26:05.411Z,102064.13
2019-06-27T13:29:28.229Z,102058.19
2019-06-27T13:32:44.906Z,102059.93
2019-06-27T13:36:07.876Z,102056.00
2019-06-27T13:39:24.529Z,102062.73
2019-06-27T13:42:41.313Z,102055.01
2019-06-27T13:46:04.106Z,102058.21
2019-06-27T13:49:21.004Z,102056.66
2019-06-27T13:52:37.631Z,102059.05
2019-06-27T13:55:45.528Z,102055.12
2019-06-27T13:58:53.091Z,102052.94
2019-06-27T14:02:00.544Z,102045.02
2019-06-27T14:05:08.637Z,102044.86
2019-06-27T14:08:15.999Z,102040.45
2019-06-27T14:11:23.678Z,102039.62
2019-06-27T14:14:31.105Z,102046.35
2019-06-27T14:17:38.746Z,102041.36
2019-06-27T14:20:55.451Z,102039.62
2019-06-27T14:24:12.534Z,102033.09
2019-06-27T14:27:29.539Z,102041.64
2019-06-27T14:30:46.104Z,102042.12
2019-06-27T14:34:09.096Z,102033.80
2019-06-27T14:37:25.719Z,102042.84
2019-06-27T14:40:45.526Z,102046.98
2019-06-27T14:44:02.284Z,102040.22
2019-06-27T14:47:19.267Z,102045.09
2019-06-27T14:50:36.205Z,102044.73
2019-06-27T14:53:52.689Z,102042.48
2019-06-27T14:57:09.642Z,102043.31
2019-06-27T15:00:26.444Z,102028.46
2019-06-27T15:03:43.260Z,102027.98
2019-06-27T15:07:00.141Z,102022.17
2019-06-27T15:10:22.709Z,102028.50
2019-06-27T15:13:29.017Z,102028.70
2019-06-27T15:16:36.731Z,102029.65
2019-06-27T15:19:42.500Z,102032.27
2019-06-27T15:22:49.752Z,102036.30
2019-06-27T15:25:57.026Z,102030.83
2019-06-27T15:29:04.506Z,102023.78
2019-06-27T15:32:24.654Z,102022.98
2019-06-27T15:35:35.020Z,102026.87
2019-06-27T15:38:41.292Z,102026.15
2019-06-27T15:41:48.643Z,102028.29
2019-06-27T15:44:55.971Z,102023.17
2019-06-27T15:48:03.474Z,102015.88
2019-06-27T15:51:20.499Z,102025.66
2019-06-27T15:54:26.869Z,102018.50
2019-06-27T15:57:34.495Z,102022.42
2019-06-27T16:00:41.964Z,102023.61
2019-06-27T16:03:59.210Z,102021.27
2019-06-27T16:07:06.758Z,102026.42
2019-06-27T16:10:14.545Z,102016.83
2019-06-27T16:13:22.061Z,102016.72
2019-06-27T16:16:29.336Z,102021.47
2019-06-27T16:19:46.414Z,102021.27
2019-06-27T16:23:37.330Z,102016.24
2019-06-27T16:26:46.968Z,102007.88
2019-06-27T16:29:54.341Z,102015.59
2019-06-27T16:33:17.273Z,102019.87
2019-06-27T16:36:25.927Z,102013.88
2019-06-27T16:39:32.044Z,102012.69
2019-06-27T16:42:38.982Z,102015.53
2019-06-27T16:45:46.457Z,102014.78
2019-06-27T16:48:53.825Z,102017.63
2019-06-27T16:52:01.329Z,102017.38
2019-06-27T16:55:08.699Z,102022.94
2019-06-27T16:58:15.944Z,102024.08
2019-06-27T17:01:23.338Z,102028.08
2019-06-27T17:04:30.786Z,102030.05
2019-06-27T17:07:47.765Z,102032.30
2019-06-27T17:11:05.858Z,102032.64
2019-06-27T17:14:13.623Z,102029.97
2019-06-27T17:17:21.094Z,102031.86
2019-06-27T17:20:28.492Z,102033.38
2019-06-27T17:23:35.896Z,102039.27
2019-06-27T17:26:52.844Z,102034.05
2019-06-27T17:30:11.428Z,102034.84
2019-06-27T17:33:18.884Z,102034.53
2019-06-27T17:36:26.299Z,102029.42
2019-06-27T17:39:33.626Z,102035.05
2019-06-27T17:42:40.880Z,102027.14
2019-06-27T17:45:48.271Z,102027.00
2019-06-27T17:48:55.880Z,102029.17
2019-06-27T17:52:12.743Z,102030.37
2019-06-27T17:55:35.480Z,102028.20
2019-06-27T17:58:41.217Z,102019.32
2019-06-27T18:01:57.930Z,102028.62
2019-06-27T18:05:18.267Z,102023.69
2019-06-27T18:08:24.434Z,102030.34
2019-06-27T18:11:31.740Z,102031.09
2019-06-27T18:14:39.163Z,102024.64
2019-06-27T18:17:46.522Z,102017.52
2019-06-27T18:20:53.961Z,102022.75
2019-06-27T18:24:10.748Z,102024.16
2019-06-27T18:27:17.664Z,102025.29
2019-06-27T18:30:25.202Z,102027.06
2019-06-27T18:33:41.820Z,102022.11
2019-06-27T18:36:58.842Z,102021.44
2019-06-27T18:40:21.642Z,102023.57
2019-06-27T18:43:38.474Z,102021.91
2019-06-27T18:46:55.235Z,102037.75
2019-06-27T18:50:12.315Z,102024.20
2019-06-27T18:53:29.089Z,102026.03
2019-06-27T18:56:46.065Z,102019.52
2019-06-27T19:00:06.556Z,102027.94
2019-06-27T19:03:13.984Z,102035.00
2019-06-27T19:06:20.850Z,102026.45
2019-06-27T19:09:37.211Z,102026.09
2019-06-27T19:12:54.274Z,102026.91
2019-06-27T19:16:11.007Z,102027.95
2019-06-27T19:19:30.713Z,102028.00
2019-06-27T19:22:55.699Z,102036.94
2019-06-27T19:26:03.161Z,102039.06
2019-06-27T19:29:26.084Z,102035.05
2019-06-27T19:32:42.922Z,102037.28
2019-06-27T19:36:05.781Z,102034.56
2019-06-27T19:39:22.474Z,102042.30
2019-06-27T19:42:39.319Z,102041.27
2019-06-27T19:45:56.094Z,102043.09
2019-06-27T19:49:01.873Z,102054.33
2019-06-27T19:52:18.568Z,102048.48
2019-06-27T19:55:37.557Z,102054.80
2019-06-27T19:58:44.609Z,102053.66
2019-06-27T20:01:51.953Z,102051.20
2019-06-27T20:04:59.273Z,102054.67
2019-06-27T20:08:18.349Z,102049.48
2019-06-27T20:11:15.945Z,102059.00
2019-06-27T20:14:23.296Z,102059.84
2019-06-27T20:17:29.627Z,102071.21
2019-06-27T20:20:37.082Z,102066.91
2019-06-27T20:23:44.531Z,102064.90
2019-06-27T20:26:52.063Z,102070.20
2019-06-27T20:29:59.451Z,102071.74
2019-06-27T20:33:05.827Z,102074.05
2019-06-27T20:36:13.053Z,102075.25
2019-06-27T20:39:20.468Z,102067.60
2019-06-27T20:42:27.739Z,102062.05
2019-06-27T20:45:35.216Z,102065.35
2019-06-27T20:48:42.608Z,102071.73
2019-06-27T20:51:48.956Z,102068.47
2019-06-27T20:54:56.402Z,102078.80
2019-06-27T20:58:02.728Z,102059.64
2019-06-27T21:01:20.058Z,102063.22
2019-06-27T21:04:27.592Z,102058.89
2019-06-27T21:07:34.945Z,102060.47
2019-06-27T21:10:42.368Z,102061.57
2019-06-27T21:13:49.779Z,102058.62
2019-06-27T21:17:06.696Z,102059.52
2019-06-27T21:20:24.006Z,102060.09
2019-06-27T21:23:31.608Z,102062.11
2019-06-27T21:26:38.913Z,102064.32
2019-06-27T21:29:46.229Z,102067.08
2019-06-27T21:32:53.584Z,102064.03
2019-06-27T21:36:00.982Z,102076.98
2019-06-27T21:39:08.355Z,102071.33
2019-06-27T21:42:25.297Z,102066.92
2019-06-27T21:45:31.765Z,102066.92
2019-06-27T21:48:39.074Z,102078.92
2019-06-27T21:51:44.968Z,102078.92
2019-06-27T21:54:52.593Z,102061.70
2019-06-27T21:58:09.236Z,102059.31
2019-06-27T22:01:32.292Z,102056.18
2019-06-27T22:05:36.676Z,102059.86
2019-06-27T22:08:42.658Z,102066.42
2019-06-27T22:11:50.265Z,102079.84
2019-06-27T22:14:57.761Z,102066.42
2019-06-27T22:18:05.416Z,102071.86
2019-06-27T22:21:22.432Z,102055.59
2019-06-27T22:24:39.432Z,102055.54
2019-06-27T22:27:56.135Z,102055.21
2019-06-27T22:31:12.956Z,102054.70
2019-06-27T22:34:19.784Z,102054.70
2019-06-27T22:37:26.366Z,102051.77
2019-06-27T22:40:51.557Z,102051.77
2019-06-27T22:44:16.709Z,102048.97
2019-06-27T22:47:59.269Z,102050.64
2019-06-27T22:51:36.955Z,102049.97
2019-06-27T22:54:45.044Z,102053.53
2019-06-27T22:58:06.041Z,102049.66
2019-06-27T23:01:22.774Z,102045.99
2019-06-27T23:04:28.377Z,102041.56
2019-06-27T23:07:45.363Z,102046.08
2019-06-27T23:11:08.269Z,102040.19
2019-06-27T23:14:25.235Z,102048.97
2019-06-27T23:17:32.706Z,102049.65
2019-06-27T23:20:49.473Z,102036.16
2019-06-27T23:24:06.512Z,102030.98
2019-06-27T23:27:29.256Z,102037.67
2019-06-27T23:30:46.013Z,102037.52
2019-06-27T23:33:52.426Z,102045.37
2019-06-27T23:37:00.722Z,102053.61
2019-06-27T23:40:17.288Z,102043.16
2019-06-27T23:43:34.001Z,102043.31
2019-06-27T23:46:50.899Z,102049.48
2019-06-27T23:50:07.902Z,102049.42
2019-06-27T23:53:24.545Z,102043.52
2019-06-27T23:56:41.808Z,102047.22
2019-06-27T23:59:58.515Z,102042.88
